sensor_id;sensor_type;location;lat;lon;timestamp;P1;durP1;ratioP1;P2;durP2;ratioP2
78824;SDS011;68176;45.554;10.220;2024-01-06T07:30:34;12.48;;;9.75;;
78824;SDS011;68176;45.554;10.220;2024-01-06T07:32:59;8.50;;;7.00;;
78824;SDS011;68176;45.554;10.220;2024-01-06T07:35:28;15.60;;;11.05;;
78824;SDS011;68176;45.554;10.220;2024-01-06T07:37:57;16.52;;;12.02;;
78824;SDS011;68176;45.554;10.220;2024-01-06T07:42:57;16.77;;;11.65;;
78824;SDS011;68176;45.554;10.220;2024-01-06T07:45:27;20.10;;;13.32;;
78824;SDS011;68176;45.554;10.220;2024-01-06T07:47:58;17.45;;;12.57;;
78824;SDS011;68176;45.554;10.220;2024-01-06T07:50:28;20.05;;;14.95;;
78824;SDS011;68176;45.554;10.220;2024-01-06T07:52:58;18.23;;;12.73;;
78824;SDS011;68176;45.554;10.220;2024-01-06T07:55:29;21.90;;;14.35;;
78824;SDS011;68176;45.554;10.220;2024-01-06T07:57:58;23.95;;;16.58;;
78824;SDS011;68176;45.554;10.220;2024-01-06T08:00:28;23.77;;;15.85;;
78824;SDS011;68176;45.554;10.220;2024-01-06T08:05:28;25.80;;;14.52;;
78824;SDS011;68176;45.554;10.220;2024-01-06T08:07:58;26.10;;;17.05;;
78824;SDS011;68176;45.554;10.220;2024-01-06T08:12:58;24.90;;;15.85;;
78824;SDS011;68176;45.554;10.220;2024-01-06T08:15:28;22.83;;;16.15;;
78824;SDS011;68176;45.554;10.220;2024-01-06T08:17:58;29.23;;;17.75;;
78824;SDS011;68176;45.554;10.220;2024-01-06T08:20:27;27.33;;;16.92;;
78824;SDS011;68176;45.554;10.220;2024-01-06T08:22:58;23.92;;;16.45;;
78824;SDS011;68176;45.554;10.220;2024-01-06T08:25:28;26.00;;;15.98;;
78824;SDS011;68176;45.554;10.220;2024-01-06T08:27:58;26.77;;;17.70;;
78824;SDS011;68176;45.554;10.220;2024-01-06T08:30:28;29.23;;;17.65;;
78824;SDS011;68176;45.554;10.220;2024-01-06T08:35:28;27.30;;;15.57;;
78824;SDS011;68176;45.554;10.220;2024-01-06T08:37:58;32.17;;;18.33;;
78824;SDS011;68176;45.554;10.220;2024-01-06T08:42:58;33.80;;;19.75;;
78824;SDS011;68176;45.554;10.220;2024-01-06T08:45:28;35.40;;;18.63;;
78824;SDS011;68176;45.554;10.220;2024-01-06T08:47:58;31.08;;;18.92;;
78824;SDS011;68176;45.554;10.220;2024-01-06T08:50:28;38.97;;;19.17;;
78824;SDS011;68176;45.554;10.220;2024-01-06T08:52:58;33.58;;;20.52;;
78824;SDS011;68176;45.554;10.220;2024-01-06T08:55:28;35.15;;;20.23;;
78824;SDS011;68176;45.554;10.220;2024-01-06T09:00:28;37.97;;;18.75;;
78824;SDS011;68176;45.554;10.220;2024-01-06T09:02:58;32.78;;;20.80;;
78824;SDS011;68176;45.554;10.220;2024-01-06T09:05:28;35.47;;;20.92;;
78824;SDS011;68176;45.554;10.220;2024-01-06T09:07:58;32.88;;;21.02;;
78824;SDS011;68176;45.554;10.220;2024-01-06T09:10:28;34.67;;;20.40;;
78824;SDS011;68176;45.554;10.220;2024-01-06T09:15:28;29.80;;;18.27;;
78824;SDS011;68176;45.554;10.220;2024-01-06T09:20:28;31.48;;;18.55;;
78824;SDS011;68176;45.554;10.220;2024-01-06T09:25:28;31.38;;;18.30;;
78824;SDS011;68176;45.554;10.220;2024-01-06T09:27:58;37.67;;;22.80;;
78824;SDS011;68176;45.554;10.220;2024-01-06T09:30:28;35.05;;;21.05;;
78824;SDS011;68176;45.554;10.220;2024-01-06T09:32:58;36.40;;;22.33;;
78824;SDS011;68176;45.554;10.220;2024-01-06T09:37:58;33.45;;;20.48;;
78824;SDS011;68176;45.554;10.220;2024-01-06T09:40:28;43.03;;;22.40;;
78824;SDS011;68176;45.554;10.220;2024-01-06T09:42:58;39.15;;;24.90;;
78824;SDS011;68176;45.554;10.220;2024-01-06T09:47:58;43.33;;;23.25;;
78824;SDS011;68176;45.554;10.220;2024-01-06T09:55:30;17.70;;;9.00;;
78824;SDS011;68176;45.554;10.220;2024-01-06T09:57:58;34.30;;;19.33;;
78824;SDS011;68176;45.554;10.220;2024-01-06T10:00:28;39.58;;;21.90;;
78824;SDS011;68176;45.554;10.220;2024-01-06T10:02:58;37.78;;;21.23;;
78824;SDS011;68176;45.554;10.220;2024-01-06T10:05:28;52.38;;;22.40;;
78824;SDS011;68176;45.554;10.220;2024-01-06T10:07:58;44.45;;;21.40;;
78824;SDS011;68176;45.554;10.220;2024-01-06T10:10:28;42.25;;;22.13;;
78824;SDS011;68176;45.554;10.220;2024-01-06T10:12:58;41.00;;;24.05;;
78824;SDS011;68176;45.554;10.220;2024-01-06T10:17:58;38.55;;;21.60;;
78824;SDS011;68176;45.554;10.220;2024-01-06T10:20:28;40.20;;;22.35;;
78824;SDS011;68176;45.554;10.220;2024-01-06T10:25:29;31.23;;;19.98;;
78824;SDS011;68176;45.554;10.220;2024-01-06T10:28:00;38.50;;;23.08;;
78824;SDS011;68176;45.554;10.220;2024-01-06T10:30:28;33.58;;;17.50;;
78824;SDS011;68176;45.554;10.220;2024-01-06T10:32:58;38.78;;;21.30;;
78824;SDS011;68176;45.554;10.220;2024-01-06T10:37:58;38.20;;;19.45;;
78824;SDS011;68176;45.554;10.220;2024-01-06T10:40:28;37.25;;;21.65;;
78824;SDS011;68176;45.554;10.220;2024-01-06T10:42:59;37.85;;;22.00;;
78824;SDS011;68176;45.554;10.220;2024-01-06T10:45:28;38.15;;;23.42;;
78824;SDS011;68176;45.554;10.220;2024-01-06T10:47:58;36.47;;;21.95;;
78824;SDS011;68176;45.554;10.220;2024-01-06T10:50:28;39.90;;;23.73;;
78824;SDS011;68176;45.554;10.220;2024-01-06T10:52:58;40.50;;;20.42;;
78824;SDS011;68176;45.554;10.220;2024-01-06T10:55:28;34.83;;;19.70;;
78824;SDS011;68176;45.554;10.220;2024-01-06T10:57:58;30.10;;;19.80;;
78824;SDS011;68176;45.554;10.220;2024-01-06T11:00:28;32.58;;;19.20;;
78824;SDS011;68176;45.554;10.220;2024-01-06T11:05:28;53.80;;;18.33;;
78824;SDS011;68176;45.554;10.220;2024-01-06T11:07:58;29.35;;;17.77;;
78824;SDS011;68176;45.554;10.220;2024-01-06T11:10:28;26.88;;;16.77;;
78824;SDS011;68176;45.554;10.220;2024-01-06T11:13:12;25.02;;;16.33;;
78824;SDS011;68176;45.554;10.220;2024-01-06T11:15:42;28.70;;;18.13;;
78824;SDS011;68176;45.554;10.220;2024-01-06T11:26:55;22.35;;;14.20;;
78824;SDS011;68176;45.554;10.220;2024-01-06T11:33:17;22.07;;;13.20;;
78824;SDS011;68176;45.554;10.220;2024-01-06T11:35:48;25.00;;;14.03;;
78824;SDS011;68176;45.554;10.220;2024-01-06T11:38:37;20.13;;;13.40;;
78824;SDS011;68176;45.554;10.220;2024-01-06T11:41:07;20.27;;;14.00;;
78824;SDS011;68176;45.554;10.220;2024-01-06T11:46:36;21.13;;;14.45;;
78824;SDS011;68176;45.554;10.220;2024-01-06T12:17:30;20.40;;;12.17;;
78824;SDS011;68176;45.554;10.220;2024-01-06T12:19:56;16.47;;;11.53;;
78824;SDS011;68176;45.554;10.220;2024-01-06T12:22:22;14.70;;;8.80;;
78824;SDS011;68176;45.554;10.220;2024-01-06T12:27:20;17.83;;;12.02;;
78824;SDS011;68176;45.554;10.220;2024-01-06T12:29:50;19.02;;;12.05;;
78824;SDS011;68176;45.554;10.220;2024-01-06T12:32:20;21.98;;;12.63;;
78824;SDS011;68176;45.554;10.220;2024-01-06T12:37:20;19.27;;;12.65;;
78824;SDS011;68176;45.554;10.220;2024-01-06T12:39:50;17.70;;;10.70;;
78824;SDS011;68176;45.554;10.220;2024-01-06T12:42:20;19.08;;;12.45;;
78824;SDS011;68176;45.554;10.220;2024-01-06T12:44:50;16.88;;;11.82;;
78824;SDS011;68176;45.554;10.220;2024-01-06T12:47:20;18.20;;;12.70;;
78824;SDS011;68176;45.554;10.220;2024-01-06T12:49:50;17.70;;;12.27;;
78824;SDS011;68176;45.554;10.220;2024-01-06T12:52:20;19.52;;;12.82;;
78824;SDS011;68176;45.554;10.220;2024-01-06T12:54:50;18.20;;;11.38;;
78824;SDS011;68176;45.554;10.220;2024-01-06T12:57:20;17.92;;;11.70;;
78824;SDS011;68176;45.554;10.220;2024-01-06T12:59:50;17.58;;;11.98;;
78824;SDS011;68176;45.554;10.220;2024-01-06T13:02:20;19.48;;;12.32;;
78824;SDS011;68176;45.554;10.220;2024-01-06T13:04:50;16.30;;;11.32;;
78824;SDS011;68176;45.554;10.220;2024-01-06T13:07:20;18.52;;;12.70;;
78824;SDS011;68176;45.554;10.220;2024-01-06T13:09:50;18.65;;;13.05;;
78824;SDS011;68176;45.554;10.220;2024-01-06T13:12:20;16.88;;;12.48;;
78824;SDS011;68176;45.554;10.220;2024-01-06T13:14:50;19.85;;;13.02;;
78824;SDS011;68176;45.554;10.220;2024-01-06T13:17:20;19.42;;;11.95;;
78824;SDS011;68176;45.554;10.220;2024-01-06T13:22:20;16.58;;;10.77;;
78824;SDS011;68176;45.554;10.220;2024-01-06T13:24:50;14.55;;;10.65;;
78824;SDS011;68176;45.554;10.220;2024-01-06T13:27:21;15.95;;;11.68;;
78824;SDS011;68176;45.554;10.220;2024-01-06T13:29:50;15.30;;;11.32;;
78824;SDS011;68176;45.554;10.220;2024-01-06T13:32:20;15.82;;;10.18;;
78824;SDS011;68176;45.554;10.220;2024-01-06T13:34:50;15.23;;;10.35;;
78824;SDS011;68176;45.554;10.220;2024-01-06T13:37:20;14.60;;;9.73;;
78824;SDS011;68176;45.554;10.220;2024-01-06T13:39:50;14.63;;;10.50;;
78824;SDS011;68176;45.554;10.220;2024-01-06T13:44:50;14.95;;;9.45;;
78824;SDS011;68176;45.554;10.220;2024-01-06T13:47:20;13.50;;;9.45;;
78824;SDS011;68176;45.554;10.220;2024-01-06T13:49:50;15.60;;;10.45;;
78824;SDS011;68176;45.554;10.220;2024-01-06T13:52:20;15.00;;;10.35;;
78824;SDS011;68176;45.554;10.220;2024-01-06T13:54:51;13.48;;;9.23;;
78824;SDS011;68176;45.554;10.220;2024-01-06T13:57:20;16.23;;;11.18;;
78824;SDS011;68176;45.554;10.220;2024-01-06T14:02:20;12.70;;;8.82;;
78824;SDS011;68176;45.554;10.220;2024-01-06T14:04:51;15.05;;;10.25;;
78824;SDS011;68176;45.554;10.220;2024-01-06T14:07:20;15.88;;;10.10;;
78824;SDS011;68176;45.554;10.220;2024-01-06T14:09:51;12.88;;;8.57;;
78824;SDS011;68176;45.554;10.220;2024-01-06T14:12:20;13.00;;;9.13;;
78824;SDS011;68176;45.554;10.220;2024-01-06T14:14:50;14.60;;;9.77;;
78824;SDS011;68176;45.554;10.220;2024-01-06T14:17:20;13.82;;;9.30;;
78824;SDS011;68176;45.554;10.220;2024-01-06T14:19:50;14.50;;;10.07;;
78824;SDS011;68176;45.554;10.220;2024-01-06T14:22:21;12.82;;;10.68;;
78824;SDS011;68176;45.554;10.220;2024-01-06T14:27:20;13.10;;;9.57;;
78824;SDS011;68176;45.554;10.220;2024-01-06T14:29:51;13.57;;;9.43;;
78824;SDS011;68176;45.554;10.220;2024-01-06T14:32:21;10.95;;;7.90;;
78824;SDS011;68176;45.554;10.220;2024-01-06T14:34:51;14.45;;;9.68;;
78824;SDS011;68176;45.554;10.220;2024-01-06T14:39:51;14.48;;;8.93;;
78824;SDS011;68176;45.554;10.220;2024-01-06T14:42:21;12.93;;;8.68;;
78824;SDS011;68176;45.554;10.220;2024-01-06T14:44:50;11.15;;;8.07;;
78824;SDS011;68176;45.554;10.220;2024-01-06T14:47:21;11.13;;;8.15;;
78824;SDS011;68176;45.554;10.220;2024-01-06T14:49:51;13.90;;;10.00;;
78824;SDS011;68176;45.554;10.220;2024-01-06T14:52:21;14.70;;;7.85;;
78824;SDS011;68176;45.554;10.220;2024-01-06T14:54:51;11.88;;;8.63;;
78824;SDS011;68176;45.554;10.220;2024-01-06T14:57:21;11.10;;;7.85;;
78824;SDS011;68176;45.554;10.220;2024-01-06T14:59:51;12.63;;;9.48;;
78824;SDS011;68176;45.554;10.220;2024-01-06T15:02:21;12.02;;;7.78;;
78824;SDS011;68176;45.554;10.220;2024-01-06T15:04:52;12.73;;;8.63;;
78824;SDS011;68176;45.554;10.220;2024-01-06T15:07:21;10.68;;;8.20;;
78824;SDS011;68176;45.554;10.220;2024-01-06T15:09:51;11.82;;;7.55;;
78824;SDS011;68176;45.554;10.220;2024-01-06T15:14:51;12.18;;;7.53;;
78824;SDS011;68176;45.554;10.220;2024-01-06T15:17:21;11.95;;;8.18;;
78824;SDS011;68176;45.554;10.220;2024-01-06T15:19:51;11.48;;;7.57;;
78824;SDS011;68176;45.554;10.220;2024-01-06T15:22:21;11.45;;;7.68;;
78824;SDS011;68176;45.554;10.220;2024-01-06T15:24:51;11.00;;;7.53;;
78824;SDS011;68176;45.554;10.220;2024-01-06T15:27:21;10.77;;;8.23;;
78824;SDS011;68176;45.554;10.220;2024-01-06T15:29:51;10.25;;;7.22;;
78824;SDS011;68176;45.554;10.220;2024-01-06T15:32:33;10.37;;;6.57;;
78824;SDS011;68176;45.554;10.220;2024-01-06T15:35:04;6.83;;;4.93;;
78824;SDS011;68176;45.554;10.220;2024-01-06T15:37:55;8.03;;;4.93;;
78824;SDS011;68176;45.554;10.220;2024-01-06T15:40:46;8.43;;;5.67;;
78824;SDS011;68176;45.554;10.220;2024-01-06T15:43:26;10.30;;;7.63;;
78824;SDS011;68176;45.554;10.220;2024-01-06T15:45:53;7.10;;;4.05;;
78824;SDS011;68176;45.554;10.220;2024-01-06T15:48:52;9.77;;;5.93;;
78824;SDS011;68176;45.554;10.220;2024-01-06T15:52:11;7.27;;;5.13;;
78824;SDS011;68176;45.554;10.220;2024-01-06T15:58:40;8.97;;;6.67;;
78824;SDS011;68176;45.554;10.220;2024-01-06T16:01:54;9.27;;;6.20;;
78824;SDS011;68176;45.554;10.220;2024-01-06T16:05:07;8.30;;;6.20;;
78824;SDS011;68176;45.554;10.220;2024-01-06T16:07:48;9.60;;;5.50;;
78824;SDS011;68176;45.554;10.220;2024-01-06T16:32:01;9.52;;;6.68;;
78824;SDS011;68176;45.554;10.220;2024-01-06T16:34:26;17.50;;;3.90;;
78824;SDS011;68176;45.554;10.220;2024-01-06T16:36:55;8.45;;;5.38;;
78824;SDS011;68176;45.554;10.220;2024-01-06T16:39:25;9.82;;;5.85;;
78824;SDS011;68176;45.554;10.220;2024-01-06T16:41:55;7.70;;;5.67;;
78824;SDS011;68176;45.554;10.220;2024-01-06T16:44:25;9.05;;;5.75;;
78824;SDS011;68176;45.554;10.220;2024-01-06T16:46:58;8.65;;;5.82;;
78824;SDS011;68176;45.554;10.220;2024-01-06T16:57:18;9.15;;;6.03;;
78824;SDS011;68176;45.554;10.220;2024-01-06T16:59:43;2.60;;;2.20;;
78824;SDS011;68176;45.554;10.220;2024-01-06T17:02:12;8.40;;;4.82;;
78824;SDS011;68176;45.554;10.220;2024-01-06T17:04:42;7.88;;;4.50;;
78824;SDS011;68176;45.554;10.220;2024-01-06T17:07:12;8.13;;;6.07;;
78824;SDS011;68176;45.554;10.220;2024-01-06T17:09:42;7.55;;;5.55;;
78824;SDS011;68176;45.554;10.220;2024-01-06T17:12:14;6.70;;;3.70;;
78824;SDS011;68176;45.554;10.220;2024-01-06T17:14:42;9.48;;;6.03;;
78824;SDS011;68176;45.554;10.220;2024-01-06T17:32:32;5.80;;;3.80;;
78824;SDS011;68176;45.554;10.220;2024-01-06T17:35:06;8.47;;;5.70;;
78824;SDS011;68176;45.554;10.220;2024-01-06T17:37:32;6.30;;;4.90;;
78824;SDS011;68176;45.554;10.220;2024-01-06T17:42:33;7.88;;;5.68;;
78824;SDS011;68176;45.554;10.220;2024-01-06T17:44:59;7.90;;;6.50;;
78824;SDS011;68176;45.554;10.220;2024-01-06T17:47:28;6.90;;;4.72;;
78824;SDS011;68176;45.554;10.220;2024-01-06T17:49:58;6.22;;;4.80;;
78824;SDS011;68176;45.554;10.220;2024-01-06T17:52:28;8.95;;;5.90;;
78824;SDS011;68176;45.554;10.220;2024-01-06T17:54:58;7.60;;;6.38;;
78824;SDS011;68176;45.554;10.220;2024-01-06T17:57:28;6.63;;;4.80;;
78824;SDS011;68176;45.554;10.220;2024-01-06T17:59:59;7.70;;;4.87;;
78824;SDS011;68176;45.554;10.220;2024-01-06T18:02:28;6.72;;;4.60;;
78824;SDS011;68176;45.554;10.220;2024-01-06T18:04:58;7.00;;;4.85;;
78824;SDS011;68176;45.554;10.220;2024-01-06T18:07:28;8.07;;;4.63;;
78824;SDS011;68176;45.554;10.220;2024-01-06T18:09:58;8.40;;;6.25;;
78824;SDS011;68176;45.554;10.220;2024-01-06T18:12:29;7.88;;;4.75;;
78824;SDS011;68176;45.554;10.220;2024-01-06T18:14:58;5.65;;;4.03;;
78824;SDS011;68176;45.554;10.220;2024-01-06T18:30:34;7.70;;;4.83;;
78824;SDS011;68176;45.554;10.220;2024-01-06T18:33:01;4.40;;;2.95;;
78824;SDS011;68176;45.554;10.220;2024-01-06T18:35:28;5.68;;;3.92;;
78824;SDS011;68176;45.554;10.220;2024-01-06T18:37:58;6.07;;;4.07;;
78824;SDS011;68176;45.554;10.220;2024-01-06T19:16:37;5.63;;;3.27;;
78824;SDS011;68176;45.554;10.220;2024-01-06T19:19:03;2.80;;;2.60;;
78824;SDS011;68176;45.554;10.220;2024-01-06T19:24:05;3.70;;;2.30;;
78824;SDS011;68176;45.554;10.220;2024-01-06T19:26:34;3.30;;;2.35;;
78824;SDS011;68176;45.554;10.220;2024-01-06T19:29:01;5.13;;;3.28;;
78824;SDS011;68176;45.554;10.220;2024-01-06T19:31:31;6.18;;;3.85;;
78824;SDS011;68176;45.554;10.220;2024-01-06T19:34:01;5.30;;;3.92;;
78824;SDS011;68176;45.554;10.220;2024-01-06T19:36:33;6.03;;;3.53;;
78824;SDS011;68176;45.554;10.220;2024-01-06T19:39:05;4.20;;;2.40;;
78824;SDS011;68176;45.554;10.220;2024-01-06T19:42:01;4.13;;;3.23;;
78824;SDS011;68176;45.554;10.220;2024-01-06T19:44:33;3.90;;;2.57;;
78824;SDS011;68176;45.554;10.220;2024-01-06T19:47:13;4.17;;;3.50;;
78824;SDS011;68176;45.554;10.220;2024-01-06T19:49:52;6.10;;;3.90;;
78824;SDS011;68176;45.554;10.220;2024-01-06T19:53:08;6.47;;;4.07;;
78824;SDS011;68176;45.554;10.220;2024-01-06T19:58:32;4.37;;;3.20;;
78824;SDS011;68176;45.554;10.220;2024-01-06T20:00:58;3.50;;;2.40;;
78824;SDS011;68176;45.554;10.220;2024-01-06T20:11:09;5.17;;;4.23;;
